Aeroporto :
LOGIN :

Iscrizione | Disclaimer

   EN    FR    IT 

 










Sommario :    VFR   VFR Marginale   IFR   IFR Intensivo   IFR Molto Intensivo
Visibilità : 
Base nubi : 
>= 8 km
>= 3000ft
5 / 8 km
1000 / 3000 ft
1500m / 5 km
500 / 1000 ft
800 / 1500m
200 / 500 ft
< 800m
< 200 ft
Simboli :   Temporali  Nebbia  Neve Forte  Precipitazioni Forti  Vento > 20 kt
SIGMETs :   Varie  Temporali  Ghiacco  Turbolenza  Onda orograficha  Ceneri Vulcaniche






- Altitudine del aeroporto : 46 ft
- Codice IATA : SNN


EINN - Shannon

ULTIMO METAR :
  • 211300Z 08006KT 9999 -RA FEW015 SCT023 BKN050 08/06 Q0995 NOSIG

METARs OBSOLETI :
  • 211230Z 09007KT 9999 -RA FEW015 SCT023 BKN050 08/07 Q0995 NOSIG
  • 211200Z 09008KT 9999 -RA FEW015 SCT023 BKN050 08/06 Q0995 NOSIG
  • 211130Z 09008KT 9999 -RA FEW015 SCT023 BKN048 08/06 Q0995 NOSIG
  • 211100Z 09009KT 9999 -RA FEW015 SCT023 BKN048 08/06 Q0995 NOSIG
  • 211030Z 08007KT 9999 FEW015 SCT023 BKN060 08/06 Q0995 NOSIG

TAF TAF EINN
Valido dal 21 a 12 ore il 22 a 12 ore UTC


211100Z 2112/2212 09008KT 9999 FEW015 BKN040
TEMPO 2112/2117 5000 -SHRA BKN015 BKN020CB
BECMG 2114/2116 06008KT
TEMPO 2117/2207 5000 BR BKN010
PROB40
TEMPO 2121/2206 3000 BKN006



MetMap, La meteo Aeronautica in un colpo d'occhio ! - Copyright ORBIFLY Dicembre 2007 - Disclaimer

ORBIFLY MET'MAP TEAM :

Programmazione e sviluppo : Alexandra Zaïnal
Concezione e sviluppo : Baudouin d'Aumeries
Co-Programmazione e sviluppo : Marc-Olivier Méhu
Supporto tecnico e logistico : Manuel Goepfert
Aiuto per la traduzione : Arnaldo La Scala

Contatto : metmap@orbifly.com




FONTI E CREDITI :

   NOAA